Time;durP1;ratioP1;P1;durP2;ratioP2;P2;SDS_P1;SDS_P2;PMS_P1;PMS_P2;Temp;Humidity;BMP_temperature;BMP_pressure;BME280_temperature;BME280_humidity;BME280_pressure;Samples;Min_cycle;Max_cycle;Signal;HPM_P1;HPM_P2
2022/11/13 00:00:18;;;;;;;107.00;44.35;;;;;;;;;;1024761;28;20123;-75
2022/11/13 00:00:48;;;;;;;125.63;50.72;;;;;;;;;;1024894;28;20422;-75
2022/11/13 00:01:20;;;;;;;107.97;48.25;;;;;;;;;;1025023;28;20442;-75
2022/11/13 00:01:51;;;;;;;118.07;47.35;;;;;;;;;;1025718;28;20022;-75
2022/11/13 00:02:21;;;;;;;112.53;49.40;;;;;;;;;;1025231;28;20027;-75
2022/11/13 00:02:52;;;;;;;110.43;48.63;;;;;;;;;;1025302;28;20027;-75
2022/11/13 00:03:23;;;;;;;120.72;44.15;;;;;;;;;;1029584;28;20077;-75
2022/11/13 00:03:53;;;;;;;97.90;43.28;;;;;;;;;;1024872;28;20070;-75
2022/11/13 00:04:24;;;;;;;100.20;39.42;;;;;;;;;;1026189;28;20075;-75
2022/11/13 00:04:54;;;;;;;87.45;36.60;;;;;;;;;;1024654;28;20117;-75
2022/11/13 00:05:25;;;;;;;84.32;37.67;;;;;;;;;;1025082;28;20030;-75
2022/11/13 00:05:59;;;;;;;80.32;31.88;;;;;;;;;;1028388;28;20538;-75
2022/11/13 00:06:30;;;;;;;68.72;29.30;;;;;;;;;;1024993;28;20031;-75
2022/11/13 00:07:00;;;;;;;62.70;27.63;;;;;;;;;;1024900;28;20022;-75
2022/11/13 00:07:31;;;;;;;77.72;30.45;;;;;;;;;;1024606;28;20477;-75
2022/11/13 00:08:02;;;;;;;59.78;28.42;;;;;;;;;;1025689;28;20090;-75
2022/11/13 00:08:32;;;;;;;61.20;28.10;;;;;;;;;;1027808;28;20517;-75
2022/11/13 00:09:03;;;;;;;66.60;26.55;;;;;;;;;;1028788;28;20045;-75
2022/11/13 00:09:33;;;;;;;63.40;27.77;;;;;;;;;;1026503;28;20027;-75
2022/11/13 00:10:04;;;;;;;58.90;28.45;;;;;;;;;;1021872;29;20452;-75
2022/11/13 00:10:35;;;;;;;62.55;26.50;;;;;;;;;;1025675;28;20027;-75
2022/11/13 00:11:10;;;;;;;63.72;25.20;;;;;;;;;;1025173;28;20046;-75
2022/11/13 00:11:41;;;;;;;60.17;25.17;;;;;;;;;;1026159;28;20078;-75
2022/11/13 00:12:11;;;;;;;67.32;26.58;;;;;;;;;;1029805;28;20031;-75
2022/11/13 00:12:42;;;;;;;62.75;26.23;;;;;;;;;;1031102;28;20033;-75
2022/11/13 00:13:12;;;;;;;69.57;27.45;;;;;;;;;;1025845;28;20054;-75
2022/11/13 00:13:43;;;;;;;52.22;25.08;;;;;;;;;;1027385;28;20506;-75
2022/11/13 00:14:14;;;;;;;57.63;26.00;;;;;;;;;;1027702;28;20023;-75
2022/11/13 00:14:44;;;;;;;57.10;24.58;;;;;;;;;;1027738;28;20090;-75
2022/11/13 00:15:15;;;;;;;60.80;24.65;;;;;;;;;;1029773;28;20109;-75
2022/11/13 00:15:55;;;;;;;47.17;24.95;;;;;;;;;;1029457;28;20117;-75
2022/11/13 00:16:25;;;;;;;62.42;25.85;;;;;;;;;;1029728;28;20030;-75
2022/11/13 00:16:56;;;;;;;67.75;26.80;;;;;;;;;;1024654;28;20035;-75
2022/11/13 00:17:27;;;;;;;64.65;24.45;;;;;;;;;;1022630;29;20027;-75
2022/11/13 00:18:01;;;;;;;50.67;21.75;;;;;;;;;;1017554;29;20320;-75
2022/11/13 00:18:35;;;;;;;59.78;25.10;;;;;;;;;;1017865;29;20043;-75
2022/11/13 00:19:05;;;;;;;60.45;24.95;;;;;;;;;;1022021;28;20035;-75
2022/11/13 00:19:36;;;;;;;76.80;25.75;;;;;;;;;;1026511;28;20027;-75
2022/11/13 00:20:07;;;;;;;60.25;24.83;;;;;;;;;;1029674;28;20033;-75
2022/11/13 00:20:37;;;;;;;58.53;23.20;;;;;;;;;;1025685;28;20019;-75
2022/11/13 00:21:28;;;;;;;58.17;24.83;;;;;;;;;;1025956;28;20027;-75
2022/11/13 00:21:59;;;;;;;70.97;24.10;;;;;;;;;;1023454;28;20045;-75
2022/11/13 00:22:30;;;;;;;58.25;25.23;;;;;;;;;;1023599;28;20027;-75
2022/11/13 00:23:00;;;;;;;50.63;23.80;;;;;;;;;;1026488;28;20023;-75
2022/11/13 00:23:33;;;;;;;59.08;26.13;;;;;;;;;;1027944;28;20026;-75
2022/11/13 00:24:04;;;;;;;52.22;23.55;;;;;;;;;;1029587;28;20035;-75
2022/11/13 00:24:34;;;;;;;68.85;24.23;;;;;;;;;;1030641;28;20022;-75
2022/11/13 00:25:05;;;;;;;50.50;23.58;;;;;;;;;;1029587;28;20109;-75
2022/11/13 00:25:36;;;;;;;54.85;24.90;;;;;;;;;;1026091;28;20085;-75
2022/11/13 00:26:07;;;;;;;61.75;23.92;;;;;;;;;;1025663;28;20121;-75
2022/11/13 00:26:38;;;;;;;61.97;24.42;;;;;;;;;;1027438;28;20026;-75
2022/11/13 00:27:09;;;;;;;62.50;28.40;;;;;;;;;;1027711;28;20542;-75
2022/11/13 00:27:39;;;;;;;65.35;28.98;;;;;;;;;;1029717;28;20026;-75
2022/11/13 00:28:10;;;;;;;64.15;26.52;;;;;;;;;;1026976;28;20443;-75
2022/11/13 00:28:41;;;;;;;63.00;28.98;;;;;;;;;;1027150;28;20029;-76
2022/11/13 00:29:11;;;;;;;60.85;27.35;;;;;;;;;;1027685;28;20479;-76
2022/11/13 00:29:42;;;;;;;54.25;25.63;;;;;;;;;;1023496;29;20035;-76
2022/11/13 00:30:13;;;;;;;73.20;26.70;;;;;;;;;;1023877;28;20035;-76
2022/11/13 00:30:43;;;;;;;65.05;26.70;;;;;;;;;;1025821;28;20030;-76
2022/11/13 00:31:14;;;;;;;62.60;28.60;;;;;;;;;;1022670;28;20602;-76
2022/11/13 00:31:45;;;;;;;59.25;25.30;;;;;;;;;;1025342;28;20450;-76
2022/11/13 00:32:16;;;;;;;63.88;27.45;;;;;;;;;;1024855;28;20034;-76
2022/11/13 00:32:46;;;;;;;61.88;25.90;;;;;;;;;;1025848;28;20026;-76
2022/11/13 00:33:17;;;;;;;61.17;23.67;;;;;;;;;;1029562;28;20030;-76
2022/11/13 00:33:47;;;;;;;68.28;29.13;;;;;;;;;;1025615;28;20027;-76
2022/11/13 00:34:18;;;;;;;53.00;26.38;;;;;;;;;;1021642;29;20483;-76
2022/11/13 00:34:49;;;;;;;60.10;25.15;;;;;;;;;;1022039;28;20496;-76
2022/11/13 00:35:19;;;;;;;42.83;24.90;;;;;;;;;;1025624;28;20034;-76
2022/11/13 00:35:50;;;;;;;62.83;26.15;;;;;;;;;;1025432;28;20484;-76
2022/11/13 00:36:22;;;;;;;66.43;28.45;;;;;;;;;;1026114;28;20102;-76
2022/11/13 00:36:52;;;;;;;55.97;25.08;;;;;;;;;;1030171;28;20096;-76
2022/11/13 00:37:23;;;;;;;70.65;27.42;;;;;;;;;;1030094;28;20080;-76
2022/11/13 00:37:53;;;;;;;78.40;25.23;;;;;;;;;;1029588;28;20022;-76
2022/11/13 00:38:24;;;;;;;58.25;26.02;;;;;;;;;;1027504;28;20095;-76
2022/11/13 00:38:55;;;;;;;56.58;27.70;;;;;;;;;;1027110;28;20487;-76
2022/11/13 00:39:25;;;;;;;57.67;26.15;;;;;;;;;;1026384;28;20134;-76
2022/11/13 00:39:56;;;;;;;55.45;27.40;;;;;;;;;;1025565;28;20942;-76
2022/11/13 00:40:27;;;;;;;60.58;26.73;;;;;;;;;;1028760;28;20022;-76
2022/11/13 00:40:57;;;;;;;48.42;25.15;;;;;;;;;;1025450;28;20138;-76
2022/11/13 00:41:28;;;;;;;56.80;27.60;;;;;;;;;;1024470;28;20090;-76
2022/11/13 00:41:59;;;;;;;60.83;27.80;;;;;;;;;;1023390;29;20409;-76
2022/11/13 00:42:29;;;;;;;59.05;27.77;;;;;;;;;;1019923;29;20020;-76
2022/11/13 00:43:00;;;;;;;64.60;29.67;;;;;;;;;;1021679;29;20495;-76
2022/11/13 00:43:30;;;;;;;65.00;28.40;;;;;;;;;;1022369;28;20023;-76
2022/11/13 00:44:02;;;;;;;55.70;27.23;;;;;;;;;;1025434;28;20079;-76
2022/11/13 00:44:33;;;;;;;57.85;27.95;;;;;;;;;;1025009;28;20577;-76
2022/11/13 00:45:07;;;;;;;58.40;28.70;;;;;;;;;;1026725;28;20029;-76
2022/11/13 00:45:38;;;;;;;57.28;29.40;;;;;;;;;;1024091;28;20086;-76
2022/11/13 00:46:09;;;;;;;60.42;28.77;;;;;;;;;;1022471;28;20516;-76
2022/11/13 00:46:39;;;;;;;65.20;28.50;;;;;;;;;;1025602;28;20023;-76
2022/11/13 00:47:10;;;;;;;70.43;32.25;;;;;;;;;;1026090;28;20392;-76
2022/11/13 00:47:40;;;;;;;65.85;29.80;;;;;;;;;;1025503;28;20027;-76
2022/11/13 00:48:11;;;;;;;68.38;33.38;;;;;;;;;;1025449;28;20117;-76
2022/11/13 00:48:42;;;;;;;67.93;29.67;;;;;;;;;;1024313;28;20039;-75
2022/11/13 00:49:12;;;;;;;71.25;31.13;;;;;;;;;;1025405;28;20057;-75
2022/11/13 00:49:43;;;;;;;62.88;32.33;;;;;;;;;;1021455;28;20026;-75
2022/11/13 00:50:13;;;;;;;77.70;31.90;;;;;;;;;;1025954;28;20512;-75
2022/11/13 00:50:44;;;;;;;76.45;32.83;;;;;;;;;;1021272;29;20023;-75
2022/11/13 00:51:15;;;;;;;65.50;28.08;;;;;;;;;;1022841;28;20470;-75
2022/11/13 00:51:45;;;;;;;67.47;29.90;;;;;;;;;;1025474;28;20451;-76
2022/11/13 00:52:16;;;;;;;84.15;32.17;;;;;;;;;;1025295;28;20427;-76
2022/11/13 00:52:47;;;;;;;68.43;30.17;;;;;;;;;;1029517;28;20483;-76
2022/11/13 00:53:17;;;;;;;67.63;30.45;;;;;;;;;;1029907;28;20506;-76
2022/11/13 00:53:48;;;;;;;67.47;31.77;;;;;;;;;;1024885;28;20031;-76
2022/11/13 00:54:19;;;;;;;61.90;29.02;;;;;;;;;;1025819;28;20114;-76
2022/11/13 00:54:49;;;;;;;65.28;30.67;;;;;;;;;;1025741;28;20031;-76
2022/11/13 00:55:20;;;;;;;68.68;36.30;;;;;;;;;;1025802;28;20027;-76
2022/11/13 00:55:50;;;;;;;85.93;41.05;;;;;;;;;;1029787;28;20026;-76
2022/11/13 00:56:21;;;;;;;79.07;38.42;;;;;;;;;;1030435;28;20031;-76
2022/11/13 00:56:51;;;;;;;91.72;40.15;;;;;;;;;;1025116;28;20019;-76
2022/11/13 00:57:22;;;;;;;98.00;41.53;;;;;;;;;;1025687;28;20060;-76
2022/11/13 00:57:53;;;;;;;80.65;39.35;;;;;;;;;;1025596;28;20027;-76
2022/11/13 00:58:23;;;;;;;81.20;34.85;;;;;;;;;;1025625;28;20549;-76
2022/11/13 00:58:54;;;;;;;82.13;35.90;;;;;;;;;;1029276;28;20030;-76
2022/11/13 00:59:24;;;;;;;72.07;34.72;;;;;;;;;;1028295;28;20062;-76
2022/11/13 00:59:55;;;;;;;71.60;32.88;;;;;;;;;;1030559;28;20111;-76
2022/11/13 01:00:25;;;;;;;63.75;31.58;;;;;;;;;;1029787;28;20037;-76
2022/11/13 01:01:02;;;;;;;71.85;33.38;;;;;;;;;;1025394;28;20490;-76
2022/11/13 01:01:33;;;;;;;71.07;31.60;;;;;;;;;;1025689;28;20027;-76
2022/11/13 01:02:03;;;;;;;66.80;32.30;;;;;;;;;;1027357;28;20549;-76
2022/11/13 01:02:34;;;;;;;70.93;31.35;;;;;;;;;;1026481;28;20035;-76
2022/11/13 01:03:04;;;;;;;69.55;30.20;;;;;;;;;;1029842;28;20080;-76
2022/11/13 01:03:35;;;;;;;75.50;34.17;;;;;;;;;;1025380;28;20027;-76
2022/11/13 01:04:06;;;;;;;73.18;34.80;;;;;;;;;;1024951;28;20027;-76
2022/11/13 01:04:36;;;;;;;67.72;32.90;;;;;;;;;;1025169;28;20023;-76
2022/11/13 01:05:07;;;;;;;73.10;33.45;;;;;;;;;;1025741;28;20551;-76
2022/11/13 01:05:38;;;;;;;69.38;31.77;;;;;;;;;;1025157;28;20412;-75
2022/11/13 01:06:29;;;;;;;65.82;34.25;;;;;;;;;;1025917;28;20518;-76
2022/11/13 01:07:00;;;;;;;65.03;30.77;;;;;;;;;;1025381;28;20031;-76
2022/11/13 01:07:30;;;;;;;74.20;32.28;;;;;;;;;;1024762;28;20023;-76
2022/11/13 01:08:01;;;;;;;72.07;32.63;;;;;;;;;;1024816;28;20876;-76
2022/11/13 01:08:31;;;;;;;69.25;30.85;;;;;;;;;;1025192;28;20106;-76
2022/11/13 01:09:02;;;;;;;63.78;32.20;;;;;;;;;;1029821;28;20023;-76
2022/11/13 01:09:33;;;;;;;71.28;31.92;;;;;;;;;;1030017;28;20398;-76
2022/11/13 01:10:04;;;;;;;73.03;34.33;;;;;;;;;;1024634;28;20023;-76
2022/11/13 01:10:37;;;;;;;71.93;33.20;;;;;;;;;;1025605;28;20027;-76
2022/11/13 01:11:09;;;;;;;71.30;31.55;;;;;;;;;;1024999;28;20030;-76
2022/11/13 01:11:40;;;;;;;71.97;32.65;;;;;;;;;;1027406;28;20470;-76
2022/11/13 01:12:10;;;;;;;64.28;31.50;;;;;;;;;;1029618;28;20105;-76
2022/11/13 01:12:41;;;;;;;67.72;31.60;;;;;;;;;;1029467;28;20057;-76
2022/11/13 01:13:12;;;;;;;74.38;31.67;;;;;;;;;;1030304;28;20031;-76
2022/11/13 01:13:43;;;;;;;68.63;30.20;;;;;;;;;;1029831;28;20030;-76
2022/11/13 01:14:13;;;;;;;67.93;31.13;;;;;;;;;;1029925;28;20034;-76
2022/11/13 01:14:44;;;;;;;58.60;30.15;;;;;;;;;;1029434;28;20418;-76
2022/11/13 01:15:15;;;;;;;68.22;31.20;;;;;;;;;;1029863;28;20635;-76
2022/11/13 01:15:45;;;;;;;74.35;29.42;;;;;;;;;;1029635;28;20041;-76
2022/11/13 01:16:17;;;;;;;71.35;37.00;;;;;;;;;;1026180;28;20019;-76
2022/11/13 01:16:47;;;;;;;66.18;32.83;;;;;;;;;;1025608;28;20022;-76
2022/11/13 01:17:18;;;;;;;75.97;36.58;;;;;;;;;;1025279;28;20027;-76
2022/11/13 01:17:50;;;;;;;80.65;34.00;;;;;;;;;;1025219;28;20035;-76
2022/11/13 01:18:21;;;;;;;58.80;24.38;;;;;;;;;;1029164;28;20057;-76
2022/11/13 01:18:55;;;;;;;45.55;22.02;;;;;;;;;;1021563;28;20031;-76
2022/11/13 01:19:25;;;;;;;56.22;22.25;;;;;;;;;;1025141;28;20028;-76
2022/11/13 01:19:56;;;;;;;59.50;23.13;;;;;;;;;;1025433;28;20027;-76
2022/11/13 01:20:26;;;;;;;48.42;22.67;;;;;;;;;;1025473;28;20078;-76
2022/11/13 01:21:26;;;;;;;43.75;20.27;;;;;;;;;;1025276;28;20023;-76
2022/11/13 01:21:57;;;;;;;45.38;19.77;;;;;;;;;;1015255;29;20123;-76
2022/11/13 01:22:27;;;;;;;39.70;22.45;;;;;;;;;;1024993;28;20050;-76
2022/11/13 01:22:58;;;;;;;48.85;21.55;;;;;;;;;;1028705;28;20109;-76
2022/11/13 01:23:29;;;;;;;50.28;22.65;;;;;;;;;;1026135;28;20031;-76
2022/11/13 01:24:00;;;;;;;45.10;22.10;;;;;;;;;;1024309;28;20538;-76
2022/11/13 01:24:30;;;;;;;43.53;21.33;;;;;;;;;;1025730;28;20101;-76
2022/11/13 01:25:01;;;;;;;49.90;23.30;;;;;;;;;;1027429;28;20019;-76
2022/11/13 01:25:32;;;;;;;43.40;21.63;;;;;;;;;;1030115;28;20026;-76
2022/11/13 01:26:03;;;;;;;59.08;24.92;;;;;;;;;;1025924;28;20023;-76
2022/11/13 01:26:34;;;;;;;48.72;24.92;;;;;;;;;;1025156;28;20471;-76
2022/11/13 01:27:05;;;;;;;41.38;22.27;;;;;;;;;;1025002;28;20055;-76
2022/11/13 01:27:36;;;;;;;47.60;22.42;;;;;;;;;;1026176;28;20415;-75
2022/11/13 01:28:06;;;;;;;50.10;24.58;;;;;;;;;;1025623;28;20019;-76
2022/11/13 01:28:37;;;;;;;47.83;22.77;;;;;;;;;;1021275;29;20063;-76
2022/11/13 01:29:09;;;;;;;50.97;24.05;;;;;;;;;;1021512;29;20027;-76
2022/11/13 01:29:39;;;;;;;63.78;24.27;;;;;;;;;;1021883;28;20055;-76
2022/11/13 01:30:10;;;;;;;46.63;24.73;;;;;;;;;;1025613;28;20023;-76
2022/11/13 01:30:41;;;;;;;53.35;23.10;;;;;;;;;;1025030;28;20019;-76
2022/11/13 01:31:14;;;;;;;54.58;23.52;;;;;;;;;;1025848;28;20037;-76
2022/11/13 01:31:44;;;;;;;44.50;20.95;;;;;;;;;;1024685;28;20023;-76
2022/11/13 01:32:15;;;;;;;50.90;21.75;;;;;;;;;;1025695;28;20030;-76
2022/11/13 01:32:45;;;;;;;48.17;24.25;;;;;;;;;;1029239;28;20367;-76
2022/11/13 01:33:16;;;;;;;53.85;22.13;;;;;;;;;;1029588;28;20030;-76
2022/11/13 01:33:47;;;;;;;51.03;22.70;;;;;;;;;;1029067;28;20439;-75
2022/11/13 01:34:17;;;;;;;49.40;23.10;;;;;;;;;;1025571;28;20113;-75
2022/11/13 01:34:48;;;;;;;52.70;23.58;;;;;;;;;;1023787;28;20688;-76
2022/11/13 01:35:19;;;;;;;56.65;23.60;;;;;;;;;;1024374;28;20113;-76
2022/11/13 01:35:49;;;;;;;43.72;21.63;;;;;;;;;;1022444;28;20130;-76
2022/11/13 01:36:24;;;;;;;54.22;25.80;;;;;;;;;;1027323;28;20561;-76
2022/11/13 01:36:55;;;;;;;63.25;25.20;;;;;;;;;;1026731;28;20030;-76
2022/11/13 01:37:26;;;;;;;59.65;24.98;;;;;;;;;;1026822;28;20494;-76
2022/11/13 01:37:56;;;;;;;68.57;30.35;;;;;;;;;;1026297;28;20438;-76
2022/11/13 01:38:27;;;;;;;84.85;35.88;;;;;;;;;;1025520;28;20467;-76
2022/11/13 01:38:57;;;;;;;95.47;39.65;;;;;;;;;;1025406;28;20122;-76
2022/11/13 01:39:28;;;;;;;128.82;52.30;;;;;;;;;;1026283;28;20113;-76
2022/11/13 01:39:59;;;;;;;153.20;63.50;;;;;;;;;;1028656;28;20415;-76
2022/11/13 01:40:29;;;;;;;180.75;72.53;;;;;;;;;;1030427;28;20430;-76
2022/11/13 01:41:00;;;;;;;173.63;71.47;;;;;;;;;;1029329;28;20486;-76
2022/11/13 01:41:32;;;;;;;164.10;67.90;;;;;;;;;;1025178;28;20522;-76
2022/11/13 01:42:02;;;;;;;160.55;64.97;;;;;;;;;;1025128;28;20027;-76
2022/11/13 01:42:33;;;;;;;168.13;69.03;;;;;;;;;;1025916;28;20028;-76
2022/11/13 01:43:23;;;;;;;159.65;69.03;;;;;;;;;;1025695;28;20015;-76
2022/11/13 01:43:54;;;;;;;155.25;62.00;;;;;;;;;;1030246;28;20034;-76
2022/11/13 01:44:25;;;;;;;166.05;64.22;;;;;;;;;;1029522;28;20038;-76
2022/11/13 01:44:58;;;;;;;146.85;61.53;;;;;;;;;;1029055;28;20110;-76
2022/11/13 01:45:47;;;;;;;144.40;54.45;;;;;;;;;;1029901;28;20505;-76
2022/11/13 01:46:19;;;;;;;140.77;56.10;;;;;;;;;;1029094;28;20076;-76
2022/11/13 01:46:54;;;;;;;140.13;56.17;;;;;;;;;;1025244;28;20027;-76
2022/11/13 01:47:25;;;;;;;134.18;54.88;;;;;;;;;;1024176;28;20019;-76
2022/11/13 01:47:55;;;;;;;132.68;53.20;;;;;;;;;;1024823;28;20455;-76
2022/11/13 01:48:31;;;;;;;129.18;52.60;;;;;;;;;;1026188;28;20474;-76
2022/11/13 01:49:08;;;;;;;139.88;54.60;;;;;;;;;;1028733;28;20026;-76
2022/11/13 01:49:40;;;;;;;130.52;53.17;;;;;;;;;;1029217;28;20137;-76
2022/11/13 01:50:13;;;;;;;134.10;49.42;;;;;;;;;;1029533;28;20538;-76
2022/11/13 01:50:44;;;;;;;127.65;50.70;;;;;;;;;;1029554;28;20018;-76
2022/11/13 01:51:19;;;;;;;162.65;57.53;;;;;;;;;;1025053;28;20050;-76
2022/11/13 01:51:49;;;;;;;154.20;58.70;;;;;;;;;;1025196;28;20035;-76
2022/11/13 01:52:37;;;;;;;141.93;51.33;;;;;;;;;;1025422;28;20430;-76
2022/11/13 01:53:08;;;;;;;132.88;51.20;;;;;;;;;;1029381;28;20513;-76
2022/11/13 01:53:39;;;;;;;139.07;50.53;;;;;;;;;;1026294;28;20050;-75
2022/11/13 01:54:15;;;;;;;109.93;45.97;;;;;;;;;;1025886;28;20023;-75
2022/11/13 01:54:47;;;;;;;114.22;48.35;;;;;;;;;;1021149;29;20167;-75
2022/11/13 01:55:18;;;;;;;118.40;45.40;;;;;;;;;;1021676;29;20090;-75
2022/11/13 01:55:49;;;;;;;103.00;42.47;;;;;;;;;;1021287;29;20034;-75
2022/11/13 01:56:20;;;;;;;105.18;41.17;;;;;;;;;;1021657;28;20451;-75
2022/11/13 01:56:52;;;;;;;124.05;47.38;;;;;;;;;;1026458;28;20027;-75
2022/11/13 01:57:23;;;;;;;121.88;44.03;;;;;;;;;;1031258;28;20057;-75
2022/11/13 01:57:54;;;;;;;104.72;43.47;;;;;;;;;;1025241;28;20023;-75
2022/11/13 01:58:24;;;;;;;113.13;44.38;;;;;;;;;;1025424;28;20031;-75
2022/11/13 01:59:02;;;;;;;111.60;44.85;;;;;;;;;;1024063;28;20023;-75
2022/11/13 01:59:39;;;;;;;111.80;45.42;;;;;;;;;;1026533;28;20089;-75
2022/11/13 02:00:10;;;;;;;118.60;44.63;;;;;;;;;;1029672;28;20023;-75
2022/11/13 02:00:41;;;;;;;117.22;47.22;;;;;;;;;;1029471;28;20471;-76
2022/11/13 02:01:11;;;;;;;118.13;43.63;;;;;;;;;;1030011;28;20026;-76
2022/11/13 02:01:42;;;;;;;117.50;48.00;;;;;;;;;;1029650;28;20029;-76
2022/11/13 02:02:12;;;;;;;95.85;35.72;;;;;;;;;;1026334;28;20058;-76
2022/11/13 02:02:43;;;;;;;83.40;35.10;;;;;;;;;;1025038;28;20059;-76
2022/11/13 02:03:14;;;;;;;85.43;31.90;;;;;;;;;;1024344;28;20122;-76
2022/11/13 02:03:44;;;;;;;73.45;31.65;;;;;;;;;;1024903;28;20087;-76
2022/11/13 02:04:15;;;;;;;73.18;31.58;;;;;;;;;;1027118;28;20058;-76
2022/11/13 02:04:46;;;;;;;73.38;31.60;;;;;;;;;;1027604;28;20073;-76
2022/11/13 02:05:17;;;;;;;86.97;33.22;;;;;;;;;;1027507;28;20050;-76
2022/11/13 02:05:47;;;;;;;92.03;35.45;;;;;;;;;;1026112;28;20022;-76
2022/11/13 02:06:19;;;;;;;86.50;38.58;;;;;;;;;;1025753;28;20066;-76
2022/11/13 02:07:06;;;;;;;100.30;38.80;;;;;;;;;;1017433;29;20519;-76
2022/11/13 02:07:37;;;;;;;85.35;36.17;;;;;;;;;;1021884;29;20059;-76
2022/11/13 02:08:07;;;;;;;85.70;36.17;;;;;;;;;;1023790;28;20409;-76
2022/11/13 02:08:38;;;;;;;83.47;37.08;;;;;;;;;;1023919;28;20119;-76
2022/11/13 02:09:10;;;;;;;88.78;36.75;;;;;;;;;;1025273;28;20055;-76
2022/11/13 02:09:42;;;;;;;80.22;35.63;;;;;;;;;;1024375;28;20023;-76
2022/11/13 02:10:13;;;;;;;99.32;38.63;;;;;;;;;;1029575;28;20069;-76
2022/11/13 02:10:43;;;;;;;70.30;34.75;;;;;;;;;;1023996;28;20082;-76
2022/11/13 02:11:14;;;;;;;97.25;39.55;;;;;;;;;;1024998;28;20486;-76
2022/11/13 02:11:45;;;;;;;99.93;39.85;;;;;;;;;;1025281;28;20121;-76
2022/11/13 02:12:23;;;;;;;76.93;36.83;;;;;;;;;;1025436;28;20074;-76
2022/11/13 02:12:54;;;;;;;79.32;35.72;;;;;;;;;;1029124;28;20029;-76
2022/11/13 02:13:24;;;;;;;94.68;41.33;;;;;;;;;;1030193;28;20533;-76
2022/11/13 02:13:55;;;;;;;80.35;36.83;;;;;;;;;;1028221;28;20105;-76
2022/11/13 02:14:27;;;;;;;87.05;39.88;;;;;;;;;;1029837;28;20026;-76
2022/11/13 02:14:59;;;;;;;96.88;40.05;;;;;;;;;;1029367;28;20023;-76
2022/11/13 02:15:31;;;;;;;87.40;42.28;;;;;;;;;;1029318;28;20018;-76
2022/11/13 02:16:01;;;;;;;85.70;38.15;;;;;;;;;;1029099;28;20033;-75
2022/11/13 02:16:33;;;;;;;95.57;42.10;;;;;;;;;;1025676;28;20030;-76
2022/11/13 02:17:05;;;;;;;103.97;42.88;;;;;;;;;;1024494;28;20031;-76
2022/11/13 02:17:44;;;;;;;109.25;44.75;;;;;;;;;;1026227;28;20018;-76
2022/11/13 02:18:15;;;;;;;105.30;43.20;;;;;;;;;;1025832;28;20023;-76
2022/11/13 02:18:46;;;;;;;98.82;45.25;;;;;;;;;;1024627;28;20093;-76
2022/11/13 02:19:23;;;;;;;122.82;47.10;;;;;;;;;;1026626;28;20089;-76
2022/11/13 02:19:56;;;;;;;112.80;44.65;;;;;;;;;;1026077;28;20033;-76
2022/11/13 02:20:39;;;;;;;105.03;42.33;;;;;;;;;;1027288;28;20121;-76
2022/11/13 02:21:10;;;;;;;94.70;44.03;;;;;;;;;;1025603;28;20023;-76
2022/11/13 02:21:49;;;;;;;102.07;42.97;;;;;;;;;;1028672;28;20023;-76
2022/11/13 02:22:32;;;;;;;90.85;41.67;;;;;;;;;;1028770;28;20081;-76
2022/11/13 02:23:05;;;;;;;106.03;40.55;;;;;;;;;;1031725;28;20017;-76
2022/11/13 02:23:55;;;;;;;99.45;44.25;;;;;;;;;;1031211;28;20026;-76
2022/11/13 02:24:30;;;;;;;108.38;42.78;;;;;;;;;;1029629;28;20022;-75
2022/11/13 02:25:02;;;;;;;117.85;47.60;;;;;;;;;;1029237;28;20030;-76
2022/11/13 02:25:33;;;;;;;131.23;50.55;;;;;;;;;;1024998;28;20034;-76
2022/11/13 02:26:04;;;;;;;134.43;48.85;;;;;;;;;;1025072;28;20031;-76
2022/11/13 02:26:36;;;;;;;154.40;53.83;;;;;;;;;;1025927;28;20518;-76
2022/11/13 02:27:09;;;;;;;122.00;47.25;;;;;;;;;;1027196;28;20151;-76
2022/11/13 02:27:47;;;;;;;134.30;49.15;;;;;;;;;;1029433;28;20542;-76
2022/11/13 02:28:17;;;;;;;137.63;51.22;;;;;;;;;;1029655;28;20014;-76
2022/11/13 02:28:48;;;;;;;116.82;42.67;;;;;;;;;;1024923;28;20034;-76
2022/11/13 02:29:18;;;;;;;117.38;43.78;;;;;;;;;;1025378;28;20046;-76
2022/11/13 02:29:49;;;;;;;122.78;45.38;;;;;;;;;;1024165;28;20110;-76
2022/11/13 02:30:20;;;;;;;94.95;42.55;;;;;;;;;;1026137;28;20396;-76
2022/11/13 02:30:50;;;;;;;91.63;40.03;;;;;;;;;;1029377;28;20030;-76
2022/11/13 02:31:21;;;;;;;93.30;39.30;;;;;;;;;;1025121;28;20035;-76
2022/11/13 02:31:52;;;;;;;93.03;37.42;;;;;;;;;;1025316;28;20037;-76
2022/11/13 02:32:22;;;;;;;105.20;42.28;;;;;;;;;;1025412;28;20034;-76
2022/11/13 02:32:53;;;;;;;102.90;39.03;;;;;;;;;;1027140;28;20027;-74
2022/11/13 02:33:31;;;;;;;91.50;38.53;;;;;;;;;;1029506;28;20459;-75
2022/11/13 02:34:02;;;;;;;86.38;39.55;;;;;;;;;;1030433;28;20022;-76
2022/11/13 02:34:32;;;;;;;86.18;36.97;;;;;;;;;;1028099;28;20075;-76
2022/11/13 02:35:03;;;;;;;79.43;36.08;;;;;;;;;;1025078;28;20778;-76
2022/11/13 02:35:35;;;;;;;87.38;38.03;;;;;;;;;;1025349;28;20482;-76
2022/11/13 02:36:07;;;;;;;88.63;41.75;;;;;;;;;;1024810;28;20058;-76
2022/11/13 02:36:37;;;;;;;93.78;38.38;;;;;;;;;;1026273;28;20027;-75
2022/11/13 02:37:08;;;;;;;94.65;39.17;;;;;;;;;;1028105;28;20505;-75
2022/11/13 02:37:38;;;;;;;100.60;40.55;;;;;;;;;;1021433;28;20066;-75
2022/11/13 02:38:09;;;;;;;87.65;40.42;;;;;;;;;;1026301;28;20054;-76
2022/11/13 02:38:40;;;;;;;91.53;37.65;;;;;;;;;;1025349;28;20399;-75
2022/11/13 02:39:11;;;;;;;93.57;41.75;;;;;;;;;;1025229;28;20062;-76
2022/11/13 02:39:42;;;;;;;93.47;38.38;;;;;;;;;;1024196;28;20503;-75
2022/11/13 02:40:13;;;;;;;84.55;39.05;;;;;;;;;;1024856;28;20455;-75
2022/11/13 02:40:43;;;;;;;79.70;36.22;;;;;;;;;;1024874;28;20030;-76
2022/11/13 02:41:14;;;;;;;74.00;34.42;;;;;;;;;;1024177;28;20031;-76
2022/11/13 02:41:44;;;;;;;83.10;37.42;;;;;;;;;;1025133;28;20073;-76
2022/11/13 02:42:15;;;;;;;91.65;40.53;;;;;;;;;;1029201;28;20034;-76
2022/11/13 02:42:45;;;;;;;89.82;38.75;;;;;;;;;;1028449;28;20498;-76
2022/11/13 02:43:16;;;;;;;93.22;40.35;;;;;;;;;;1026053;28;20022;-76
2022/11/13 02:43:47;;;;;;;95.22;41.92;;;;;;;;;;1023641;28;20023;-76
2022/11/13 02:44:17;;;;;;;103.63;40.35;;;;;;;;;;1025100;28;20054;-75
2022/11/13 02:44:48;;;;;;;98.07;40.08;;;;;;;;;;1024109;28;20027;-75
2022/11/13 02:45:18;;;;;;;86.45;39.70;;;;;;;;;;1025410;28;20034;-75
2022/11/13 02:45:49;;;;;;;90.05;40.97;;;;;;;;;;1025189;28;20113;-76
2022/11/13 02:46:20;;;;;;;101.80;42.38;;;;;;;;;;1024882;28;20031;-76
2022/11/13 02:46:50;;;;;;;88.68;41.72;;;;;;;;;;1024908;28;20037;-75
2022/11/13 02:47:21;;;;;;;84.25;39.47;;;;;;;;;;1029405;28;20030;-75
2022/11/13 02:47:52;;;;;;;86.95;43.92;;;;;;;;;;1025181;28;20475;-75
2022/11/13 02:48:22;;;;;;;78.20;39.83;;;;;;;;;;1025191;28;20035;-75
2022/11/13 02:48:53;;;;;;;85.43;42.42;;;;;;;;;;1024989;28;20118;-75
2022/11/13 02:49:23;;;;;;;81.25;41.85;;;;;;;;;;1025760;28;20022;-75
2022/11/13 02:49:54;;;;;;;88.25;41.67;;;;;;;;;;1024934;28;20031;-76
2022/11/13 02:50:25;;;;;;;87.97;43.13;;;;;;;;;;1025903;28;20065;-76
2022/11/13 02:50:56;;;;;;;85.68;39.55;;;;;;;;;;1026110;28;20023;-76
2022/11/13 02:51:26;;;;;;;81.72;39.63;;;;;;;;;;1025361;28;20117;-76
2022/11/13 02:51:57;;;;;;;86.55;42.05;;;;;;;;;;1024947;28;20657;-75
2022/11/13 02:52:29;;;;;;;98.80;41.95;;;;;;;;;;1016309;29;20020;-75
2022/11/13 02:52:59;;;;;;;84.45;40.72;;;;;;;;;;1021139;29;20491;-75
2022/11/13 02:53:30;;;;;;;78.95;38.67;;;;;;;;;;1021773;28;20027;-75
2022/11/13 02:54:01;;;;;;;97.18;41.35;;;;;;;;;;1025363;28;20102;-76
2022/11/13 02:54:31;;;;;;;83.63;43.47;;;;;;;;;;1029297;28;20058;-76
2022/11/13 02:55:02;;;;;;;86.10;40.67;;;;;;;;;;1028651;28;20078;-76
2022/11/13 02:55:33;;;;;;;85.18;39.00;;;;;;;;;;1025261;28;20029;-76
2022/11/13 02:56:03;;;;;;;84.95;39.97;;;;;;;;;;1025003;28;20407;-76
2022/11/13 02:56:34;;;;;;;93.03;41.00;;;;;;;;;;1025841;28;20119;-75
2022/11/13 02:57:04;;;;;;;89.30;41.63;;;;;;;;;;1020839;28;20083;-75
2022/11/13 02:57:35;;;;;;;109.82;48.28;;;;;;;;;;1025251;28;20026;-75
2022/11/13 02:58:06;;;;;;;102.97;47.47;;;;;;;;;;1022999;29;20078;-76
2022/11/13 02:58:36;;;;;;;113.07;52.60;;;;;;;;;;1023359;28;20023;-76
2022/11/13 02:59:07;;;;;;;120.50;53.15;;;;;;;;;;1027395;28;20491;-76
2022/11/13 02:59:37;;;;;;;99.70;54.22;;;;;;;;;;1027404;28;20026;-75
2022/11/13 03:00:08;;;;;;;114.75;52.95;;;;;;;;;;1029229;28;20033;-75
2022/11/13 03:00:39;;;;;;;110.68;50.50;;;;;;;;;;1025036;28;20118;-75
2022/11/13 03:01:09;;;;;;;108.78;52.08;;;;;;;;;;1026441;28;20027;-75
2022/11/13 03:01:40;;;;;;;118.28;53.35;;;;;;;;;;1024992;28;20078;-75
2022/11/13 03:02:11;;;;;;;93.80;47.63;;;;;;;;;;1025880;28;20035;-74
2022/11/13 03:02:41;;;;;;;110.95;48.95;;;;;;;;;;1029057;28;20018;-75
2022/11/13 03:03:12;;;;;;;93.18;45.75;;;;;;;;;;1029057;28;20113;-75
2022/11/13 03:03:42;;;;;;;91.65;46.03;;;;;;;;;;1029228;28;20034;-76